Time;durP1;ratioP1;P1;durP2;ratioP2;P2;SDS_P1;SDS_P2;PMS_P1;PMS_P2;Temp;Humidity;BMP_temperature;BMP_pressure;BME280_temperature;BME280_humidity;BME280_pressure;Samples;Min_cycle;Max_cycle;Signal;HPM_P1;HPM_P2
2022/03/08 00:01:47;;;;;;;;;;;2.20;1.00;;;;;;5116200;28;19951;-70
2022/03/08 00:04:13;;;;;;;;;;;;;;;;;;5113949;28;19958;-73
2022/03/08 00:06:38;;;;;;;;;;;2.20;1.00;;;;;;5115475;28;20356;-71
2022/03/08 00:09:04;;;;;;;;;;;;;;;;;;5115902;28;20010;-71
2022/03/08 00:11:30;;;;;;;;;;;;;;;;;;5114733;28;20088;-70
2022/03/08 00:13:56;;;;;;;;;;;2.00;1.00;;;;;;5115854;28;20347;-70
2022/03/08 00:16:21;;;;;;;;;;;2.00;1.00;;;;;;5114891;28;19915;-70
2022/03/08 00:18:48;;;;;;;;;;;2.00;1.00;;;;;;5115825;28;19908;-71
2022/03/08 00:21:14;;;;;;;;;;;;;;;;;;5115187;28;19915;-73
2022/03/08 00:23:40;;;;;;;;;;;2.10;1.00;;;;;;5115561;28;19911;-71
2022/03/08 00:26:05;;;;;;;;;;;2.10;1.00;;;;;;5114207;28;19922;-71
2022/03/08 00:28:31;;;;;;;;;;;2.00;1.00;;;;;;5114742;28;19977;-71
2022/03/08 00:30:57;;;;;;;;;;;2.00;1.00;;;;;;5115518;28;19908;-71
2022/03/08 00:33:22;;;;;;;;;;;2.00;1.00;;;;;;5114679;28;19908;-71
2022/03/08 00:35:48;;;;;;;;;;;;;;;;;;5115333;28;19953;-71
2022/03/08 00:38:15;;;;;;;;;;;;;;;;;;5115021;28;20399;-73
2022/03/08 00:40:41;;;;;;;;;;;2.00;1.00;;;;;;5115308;28;19998;-70
2022/03/08 00:43:06;;;;;;;;;;;2.00;1.00;;;;;;5115322;28;20391;-70
2022/03/08 00:45:32;;;;;;;;;;;2.00;1.00;;;;;;5113114;28;19996;-70
2022/03/08 00:47:58;;;;;;;;;;;2.00;1.00;;;;;;5113907;28;19907;-70
2022/03/08 00:50:25;;;;;;;;;;;1.90;1.00;;;;;;5113973;28;20320;-70
2022/03/08 00:52:51;;;;;;;;;;;1.90;1.00;;;;;;5115240;28;19911;-70
2022/03/08 00:55:18;;;;;;;;;;;;;;;;;;5114418;28;20386;-74
2022/03/08 00:57:44;;;;;;;;;;;;;;;;;;5134013;27;19927;-71
2022/03/08 01:00:12;;;;;;;;;;;1.90;1.00;;;;;;5135481;27;20286;-71
2022/03/08 01:02:37;;;;;;;;;;;1.90;1.00;;;;;;5116161;27;19908;-71
2022/03/08 01:05:03;;;;;;;;;;;1.90;1.00;;;;;;5135418;27;19908;-70
2022/03/08 01:07:29;;;;;;;;;;;1.90;1.00;;;;;;5134587;27;19907;-71
2022/03/08 01:09:54;;;;;;;;;;;1.90;1.00;;;;;;5135347;27;19915;-70
2022/03/08 01:12:20;;;;;;;;;;;1.90;1.00;;;;;;5134287;27;20371;-71
2022/03/08 01:14:45;;;;;;;;;;;2.00;1.00;;;;;;5135154;27;19915;-70
2022/03/08 01:17:11;;;;;;;;;;;1.90;1.00;;;;;;5135145;27;19918;-70
2022/03/08 01:19:36;;;;;;;;;;;2.00;1.00;;;;;;5134322;27;20473;-70
2022/03/08 01:22:02;;;;;;;;;;;2.00;1.00;;;;;;5116636;27;19907;-70
2022/03/08 01:24:29;;;;;;;;;;;1.90;1.00;;;;;;5115783;27;19915;-70
2022/03/08 01:26:55;;;;;;;;;;;1.90;1.00;;;;;;5116687;27;19920;-70
2022/03/08 01:29:21;;;;;;;;;;;1.90;1.00;;;;;;5133947;27;20340;-71
2022/03/08 01:31:46;;;;;;;;;;;1.90;1.00;;;;;;5116526;27;19967;-70
2022/03/08 01:34:12;;;;;;;;;;;1.90;1.00;;;;;;5134790;27;20435;-70
2022/03/08 01:36:37;;;;;;;;;;;1.90;1.00;;;;;;5115472;27;20063;-70
2022/03/08 01:39:03;;;;;;;;;;;1.90;1.00;;;;;;5134664;27;19915;-70
2022/03/08 01:41:29;;;;;;;;;;;2.00;1.00;;;;;;5133718;27;19915;-70
2022/03/08 01:43:54;;;;;;;;;;;2.00;1.00;;;;;;5134659;27;19908;-70
2022/03/08 01:46:20;;;;;;;;;;;;;;;;;;5133687;27;19912;-74
2022/03/08 01:48:46;;;;;;;;;;;1.90;1.00;;;;;;5134609;27;19957;-70
2022/03/08 01:51:13;;;;;;;;;;;1.90;1.00;;;;;;5134428;27;19914;-71
2022/03/08 01:53:39;;;;;;;;;;;1.80;1.00;;;;;;5133595;27;19994;-71
2022/03/08 01:56:06;;;;;;;;;;;1.80;1.00;;;;;;5134058;27;19919;-70
2022/03/08 01:58:31;;;;;;;;;;;1.70;1.00;;;;;;5133580;27;19916;-71
2022/03/08 02:00:57;;;;;;;;;;;1.70;1.00;;;;;;5115679;28;19908;-71
2022/03/08 02:03:22;;;;;;;;;;;1.70;1.00;;;;;;5133281;27;20283;-71
2022/03/08 02:05:48;;;;;;;;;;;1.70;1.00;;;;;;5115782;27;19912;-71
2022/03/08 02:08:13;;;;;;;;;;;1.60;1.00;;;;;;5133978;27;19908;-71
2022/03/08 02:10:39;;;;;;;;;;;1.70;1.00;;;;;;5133184;27;20525;-70
2022/03/08 02:13:05;;;;;;;;;;;;;;;;;;5134013;27;19915;-71
2022/03/08 02:15:30;;;;;;;;;;;1.60;1.00;;;;;;5133232;27;19934;-70
2022/03/08 02:17:58;;;;;;;;;;;1.60;1.00;;;;;;5133886;27;19912;-70
2022/03/08 02:20:23;;;;;;;;;;;;;;;;;;5133087;27;19907;-71
2022/03/08 02:22:49;;;;;;;;;;;1.70;1.00;;;;;;5133874;27;19907;-70
2022/03/08 02:25:15;;;;;;;;;;;1.60;1.00;;;;;;5115400;27;20337;-70
2022/03/08 02:27:42;;;;;;;;;;;1.50;1.00;;;;;;5132970;27;19909;-70
2022/03/08 02:30:08;;;;;;;;;;;1.50;1.00;;;;;;5133797;27;19911;-70
2022/03/08 02:32:34;;;;;;;;;;;1.50;1.00;;;;;;5132841;27;19907;-70
2022/03/08 02:35:09;;;;;;;;;;;1.60;1.00;;;;;;5133699;27;19908;-70
2022/03/08 02:37:39;;;;;;;;;;;1.60;1.00;;;;;;5132769;27;20365;-70
2022/03/08 02:40:05;;;;;;;;;;;1.50;1.00;;;;;;5114948;27;20279;-69
2022/03/08 02:42:31;;;;;;;;;;;1.50;1.00;;;;;;5132712;27;20431;-70
2022/03/08 02:44:56;;;;;;;;;;;1.50;1.00;;;;;;5133646;27;19907;-70
2022/03/08 02:47:22;;;;;;;;;;;;;;;;;;5133153;27;19914;-73
2022/03/08 02:49:48;;;;;;;;;;;1.40;1.00;;;;;;5133268;27;19914;-70
2022/03/08 02:52:13;;;;;;;;;;;1.40;1.00;;;;;;5133471;27;19915;-70
2022/03/08 02:54:39;;;;;;;;;;;1.40;1.00;;;;;;5132667;27;19914;-69
2022/03/08 02:57:04;;;;;;;;;;;1.30;1.00;;;;;;5133167;27;19931;-70
2022/03/08 02:59:30;;;;;;;;;;;1.30;1.00;;;;;;5132590;27;19918;-70
2022/03/08 03:01:55;;;;;;;;;;;1.30;1.00;;;;;;5133350;28;19908;-69
2022/03/08 03:04:21;;;;;;;;;;;;;;;;;;5133253;28;20329;-74
2022/03/08 03:06:47;;;;;;;;;;;1.20;1.00;;;;;;5132843;28;20002;-71
2022/03/08 03:09:12;;;;;;;;;;;1.10;1.00;;;;;;5136796;28;20338;-70
2022/03/08 03:11:38;;;;;;;;;;;1.10;1.00;;;;;;5132352;28;19907;-70
2022/03/08 03:14:03;;;;;;;;;;;1.10;1.00;;;;;;5136743;27;19913;-70
2022/03/08 03:16:29;;;;;;;;;;;1.10;1.00;;;;;;5136628;27;19958;-70
2022/03/08 03:18:54;;;;;;;;;;;1.00;1.00;;;;;;5119014;27;20003;-70
2022/03/08 03:21:20;;;;;;;;;;;1.10;1.00;;;;;;5118747;27;19963;-70
2022/03/08 03:23:45;;;;;;;;;;;1.00;1.00;;;;;;5136556;27;20039;-70
2022/03/08 03:26:11;;;;;;;;;;;0.90;1.00;;;;;;5118950;27;20407;-70
2022/03/08 03:28:36;;;;;;;;;;;1.00;1.00;;;;;;5136478;27;20018;-70
2022/03/08 03:31:02;;;;;;;;;;;0.90;1.00;;;;;;5137249;27;19907;-70
2022/03/08 03:33:27;;;;;;;;;;;1.00;1.00;;;;;;5136416;27;20271;-71
2022/03/08 03:35:53;;;;;;;;;;;1.00;1.00;;;;;;5137139;27;20386;-70
2022/03/08 03:38:18;;;;;;;;;;;1.00;1.00;;;;;;5136980;27;20460;-70
2022/03/08 03:40:44;;;;;;;;;;;1.00;1.00;;;;;;5129894;27;19951;-70
2022/03/08 03:43:11;;;;;;;;;;;1.10;1.00;;;;;;5116468;28;20401;-70
2022/03/08 03:45:36;;;;;;;;;;;1.10;1.00;;;;;;5115579;28;19912;-70
2022/03/08 03:48:02;;;;;;;;;;;1.20;1.00;;;;;;5133451;27;19907;-70
2022/03/08 03:50:28;;;;;;;;;;;;;;;;;;5136104;27;20256;-72
2022/03/08 03:52:54;;;;;;;;;;;1.10;1.00;;;;;;5136861;27;20252;-69
2022/03/08 03:55:19;;;;;;;;;;;1.00;1.00;;;;;;5136751;27;19967;-69
2022/03/08 03:57:45;;;;;;;;;;;1.10;1.00;;;;;;5135566;27;19919;-70
2022/03/08 04:00:12;;;;;;;;;;;1.10;1.00;;;;;;5136709;27;20381;-70
2022/03/08 04:02:37;;;;;;;;;;;1.10;1.00;;;;;;5135790;27;20303;-70
2022/03/08 04:05:03;;;;;;;;;;;1.20;1.00;;;;;;5136674;27;19908;-70
2022/03/08 04:07:29;;;;;;;;;;;;;;;;;;5135876;27;19950;-74
2022/03/08 04:09:55;;;;;;;;;;;;;;;;;;5118030;27;19907;-70
2022/03/08 04:12:21;;;;;;;;;;;1.10;1.00;;;;;;5117828;27;19947;-70
2022/03/08 04:14:46;;;;;;;;;;;1.10;1.00;;;;;;5135719;27;19979;-71
2022/03/08 04:17:12;;;;;;;;;;;1.00;1.00;;;;;;5136284;27;19912;-70
2022/03/08 04:19:37;;;;;;;;;;;1.10;1.00;;;;;;5135525;27;19916;-70
2022/03/08 04:22:03;;;;;;;;;;;;;;;;;;5136259;27;19914;-70
2022/03/08 04:24:29;;;;;;;;;;;;;;;;;;5134943;27;19908;-74
2022/03/08 04:26:54;;;;;;;;;;;1.00;1.00;;;;;;5136395;27;20268;-69
2022/03/08 04:29:20;;;;;;;;;;;1.00;1.00;;;;;;5136159;27;19973;-70
2022/03/08 04:31:45;;;;;;;;;;;1.00;1.00;;;;;;5135275;27;20676;-70
2022/03/08 04:34:11;;;;;;;;;;;1.00;1.00;;;;;;5136102;27;19950;-70
2022/03/08 04:36:36;;;;;;;;;;;1.00;1.00;;;;;;5135082;27;19911;-70
2022/03/08 04:39:02;;;;;;;;;;;1.00;1.00;;;;;;5135897;27;19914;-70
2022/03/08 04:41:28;;;;;;;;;;;;;;;;;;5135440;27;19979;-72
2022/03/08 04:43:54;;;;;;;;;;;1.00;1.00;;;;;;5135426;27;19908;-70
2022/03/08 04:46:19;;;;;;;;;;;1.00;1.00;;;;;;5135801;27;19907;-70
2022/03/08 04:48:45;;;;;;;;;;;;;;;;;;5116535;27;19996;-70
2022/03/08 04:51:11;;;;;;;;;;;1.00;1.00;;;;;;5117267;27;19912;-70
2022/03/08 04:53:36;;;;;;;;;;;1.00;1.00;;;;;;5134932;27;19913;-69
2022/03/08 04:56:02;;;;;;;;;;;1.00;1.00;;;;;;5135264;27;19984;-69
2022/03/08 04:58:28;;;;;;;;;;;;;;;;;;5135581;27;20412;-70
2022/03/08 05:00:53;;;;;;;;;;;1.00;1.00;;;;;;5116556;27;20400;-70
2022/03/08 05:03:19;;;;;;;;;;;1.00;1.00;;;;;;5135474;27;19908;-70
2022/03/08 05:05:44;;;;;;;;;;;1.00;1.00;;;;;;5134625;27;19950;-70
2022/03/08 05:08:10;;;;;;;;;;;;;;;;;;5135344;27;19907;-70
2022/03/08 05:10:36;;;;;;;;;;;1.20;1.00;;;;;;5116089;27;19911;-70
2022/03/08 05:13:03;;;;;;;;;;;1.10;1.00;;;;;;5116942;27;19913;-70
2022/03/08 05:15:29;;;;;;;;;;;;;;;;;;5135200;27;19907;-73
2022/03/08 05:17:55;;;;;;;;;;;1.10;1.00;;;;;;5116212;27;19934;-69
2022/03/08 05:20:20;;;;;;;;;;;1.20;1.00;;;;;;5116733;27;19915;-70
2022/03/08 05:22:46;;;;;;;;;;;1.20;1.00;;;;;;5115787;27;19908;-70
2022/03/08 05:25:12;;;;;;;;;;;;;;;;;;5134919;27;19960;-70
2022/03/08 05:27:38;;;;;;;;;;;1.10;1.00;;;;;;5134151;27;19907;-69
2022/03/08 05:30:04;;;;;;;;;;;1.10;1.00;;;;;;5132891;27;20272;-69
2022/03/08 05:32:30;;;;;;;;;;;;;;;;;;5130141;27;20270;-73
2022/03/08 05:34:56;;;;;;;;;;;1.10;1.00;;;;;;5115442;27;20003;-69
2022/03/08 05:37:21;;;;;;;;;;;1.10;1.00;;;;;;5113074;28;19919;-70
2022/03/08 05:39:47;;;;;;;;;;;1.10;1.00;;;;;;5113463;28;19947;-70
2022/03/08 05:42:12;;;;;;;;;;;1.10;1.00;;;;;;5132665;27;19990;-70
2022/03/08 05:44:38;;;;;;;;;;;1.10;1.00;;;;;;5133799;27;20274;-70
2022/03/08 05:47:04;;;;;;;;;;;1.10;1.00;;;;;;5134733;27;20316;-70
2022/03/08 05:49:30;;;;;;;;;;;1.00;1.00;;;;;;5134531;27;20406;-70
2022/03/08 05:51:55;;;;;;;;;;;1.00;1.00;;;;;;5133715;27;19930;-71
2022/03/08 05:54:21;;;;;;;;;;;1.00;1.00;;;;;;5134498;27;19934;-70
2022/03/08 05:56:46;;;;;;;;;;;1.00;1.00;;;;;;5133394;27;19923;-70
2022/03/08 05:59:12;;;;;;;;;;;1.00;1.00;;;;;;5134404;27;19956;-70
2022/03/08 06:01:37;;;;;;;;;;;1.00;1.00;;;;;;5133537;27;20330;-70
2022/03/08 06:04:03;;;;;;;;;;;0.90;1.00;;;;;;5134473;27;20276;-71
2022/03/08 06:06:29;;;;;;;;;;;0.90;1.00;;;;;;5128533;27;20288;-70
2022/03/08 06:08:54;;;;;;;;;;;0.90;1.00;;;;;;5120420;27;19910;-70
2022/03/08 06:11:20;;;;;;;;;;;1.00;1.00;;;;;;5133844;27;19907;-69
2022/03/08 06:13:45;;;;;;;;;;;0.90;1.00;;;;;;5132029;27;19907;-69
2022/03/08 06:16:13;;;;;;;;;;;0.90;1.00;;;;;;5095106;28;19919;-69
2022/03/08 06:18:39;;;;;;;;;;;0.90;1.00;;;;;;5112718;28;19915;-70
2022/03/08 06:21:04;;;;;;;;;;;0.80;1.00;;;;;;5113395;28;19908;-69
2022/03/08 06:23:30;;;;;;;;;;;0.70;1.00;;;;;;5113361;28;19951;-70
2022/03/08 06:25:55;;;;;;;;;;;0.70;1.00;;;;;;5112538;28;19972;-69
2022/03/08 06:28:21;;;;;;;;;;;0.80;1.00;;;;;;5114489;27;19911;-68
2022/03/08 06:30:46;;;;;;;;;;;0.80;1.00;;;;;;5121150;27;19968;-69
2022/03/08 06:33:12;;;;;;;;;;;0.90;1.00;;;;;;5113233;28;19947;-62
2022/03/08 06:35:38;;;;;;;;;;;;;;;;;;5113109;28;19908;-71
2022/03/08 06:38:03;;;;;;;;;;;0.90;1.00;;;;;;5112909;28;20424;-67
2022/03/08 06:40:29;;;;;;;;;;;0.90;1.00;;;;;;5096178;27;19907;-67
2022/03/08 06:42:55;;;;;;;;;;;0.90;1.00;;;;;;5133332;27;20070;-72
2022/03/08 06:45:20;;;;;;;;;;;1.00;1.00;;;;;;5129817;27;19915;-67
2022/03/08 06:47:46;;;;;;;;;;;1.00;1.00;;;;;;5123687;27;19967;-66
2022/03/08 06:50:11;;;;;;;;;;;1.00;1.00;;;;;;5120291;27;19912;-68
2022/03/08 06:52:37;;;;;;;;;;;;;;;;;;5112895;28;20299;-70
2022/03/08 06:55:03;;;;;;;;;;;1.10;1.00;;;;;;5113167;28;20283;-70
2022/03/08 06:57:29;;;;;;;;;;;1.10;1.00;;;;;;5112775;28;19924;-69
